Aviation Digital Data Service (ADDS)

Output produced by METARs form (1033 UTC 28 September 2021)
found at http://www.aviationweather.gov/metar/data/
 
KILE 280956Z AUTO 16003KT 10SM CLR 22/17 A2992 RMK AO2 SLP119 T02170167
KILE 280856Z AUTO 16003KT 10SM CLR 22/17 A2992 RMK AO2 SLP120 T02170167 56005
KILE 280756Z AUTO 18005KT 10SM CLR 22/16 A2992 RMK AO2 SLP121 T02220161
KILE 280656Z AUTO 16005KT 10SM CLR 24/16 A2993 RMK AO2 SLP122 T02390156
KILE 280556Z AUTO 18005KT 10SM CLR 23/15 A2994 RMK AO2 SLP125 T02280150 10300 20228 403330167 58001
KILE 280456Z AUTO 16007KT 10SM CLR 24/16 A2994 RMK AO2 SLP127 T02440156
KILE 280356Z AUTO 16006KT 10SM CLR 24/16 A2994 RMK AO2 SLP125 T02440156
KILE 280256Z AUTO 15008KT 10SM CLR 26/16 A2994 RMK AO2 SLP125 T02610156 53009
KILE 280156Z AUTO 14007KT 10SM CLR 27/16 A2993 RMK AO2 SLP123 T02720156
KILE 280056Z AUTO 15005KT 10SM CLR 28/16 A2991 RMK AO2 SLP118 T02830156
KILE 272356Z AUTO 15010KT 10SM CLR 30/16 A2991 RMK AO2 SLP116 T03000161 10333 20294 56009
KILE 272256Z AUTO 12009KT 10SM CLR 31/16 A2991 RMK AO2 SLP117 T03060161
KILE 272156Z AUTO 16008KT 10SM FEW070 33/16 A2993 RMK AO2 SLP120 T03280161
KILE 272056Z AUTO 10004KT 10SM BKN070 32/17 A2994 RMK AO2 SLP124 T03220167 56027
KILE 271956Z AUTO VRB04KT 10SM FEW070 31/16 A2995 RMK AO2 SLP130 T03060161
KILE 271856Z AUTO 00000KT 10SM FEW060 32/16 A2999 RMK AO2 SLP142 T03170161
KILE 271756Z AUTO VRB05KT 10SM FEW055 30/17 A3002 RMK AO2 SLP151 T03000167 10311 20167 58012
KILE 271656Z AUTO VRB05KT 10SM CLR 28/18 A3005 RMK AO2 SLP161 T02830183
KILE 271556Z AUTO 21006KT 10SM CLR 26/18 A3006 RMK AO2 SLP167 T02560178
KILE 271456Z AUTO 22007KT 8SM CLR 23/18 A3006 RMK AO2 SLP166 T02330183 51009
KILE 271356Z AUTO 00000KT 10SM FEW013 20/17 A3005 RMK AO2 SLP168 T02000167
KILE 271256Z AUTO 00000KT 10SM CLR 18/16 A3003 RMK AO2 SLP160 T01780156
KILE 271156Z AUTO 00000KT 10SM CLR 17/16 A3003 RMK AO2 SLP157 T01720156 10217 20167 53000
KILE 271056Z AUTO 00000KT 10SM CLR 18/16 A3002 RMK AO2 SLP154 T01780156